Romoe Maersk — OXLC2 — position and weather

sailwx.info

Track history (hours):
 
Tides and Currents Weather Stations Pressure Air Temp Water Temp Dewpoint Dewpoint Depression Visibility Wind Speed Wind Dir Waves Ship Positions

Romoe Maersk

Last reported at 2015-Mar-28 07:32 UTC. Time now 2015-Mar-30 14:13 UTC.
Position N 55°36' E 015°28'.

Length 171 m; draft 6.3 m.

Type: Ship. MMSI: 220209000.

Date/timePositionNaut miles runAvg speedWind from/ knotsBaromVisibWave heightAir tempDewpointWater temp
2015-Mar-28 07:32N 55°36' E 015°28'9 9.2
2015-Mar-28 06:34N 55°32' E 015°14'9 8.8
2015-Mar-28 05:33N 55°29' E 014°59'9 9.0
2015-Mar-28 04:33N 55°25' E 014°45'9 8.7
2015-Mar-28 03:34N 55°19' E 014°33'9 8.7
2015-Mar-28 02:34N 55°13' E 014°23'8 7.7
2015-Mar-28 01:33N 55°10' E 014°11'9 8.8
2015-Mar-28 00:33N 55°10' E 013°55'18 8.8
2015-Mar-27 22:33N 55°11' E 013°25'8 8.4
2015-Mar-27 21:33N 55°13' E 013°10'9 8.6
2015-Mar-27 20:34N 55°15' E 012°55'9 8.7
2015-Mar-27 19:33N 55°17' E 012°41'7 7.3
2015-Mar-27 18:33N 55°24' E 012°39'9 9.0
2015-Mar-27 17:33N 55°33' E 012°42'1111.1
2015-Mar-27 16:33N 55°44' E 012°41'10 9.7
2015-Mar-27 15:33N 55°54' E 012°39'1111.2
2015-Mar-27 14:33N 56°05' E 012°36'1010.0
2015-Mar-27 13:33N 56°11' E 012°21'2311.3
2015-Mar-27 11:33N 56°30' E 011°58'1212.2
2015-Mar-27 10:33N 56°41' E 011°53'1212.4
2015-Mar-27 09:33N 56°53' E 011°46'1312.0
2015-Mar-27 08:30N 57°05' E 011°39'1111.9
2015-Mar-27 07:33N 57°16' E 011°32'1212.0
2015-Mar-27 06:33N 57°27' E 011°22'1211.7
2015-Mar-27 05:33N 57°35' E 011°07'1211.8
2015-Mar-27 04:33N 57°42' E 010°49'5 3.6
2015-Mar-27 03:15N 57°43' E 010°41'0 0.0
2015-Mar-27 02:33N 57°43' E 010°41'0 0.1
2015-Mar-27 01:30N 57°43' E 010°41'0 0.0
2015-Mar-27 00:33N 57°43' E 010°41'0 0.1
2015-Mar-26 23:30N 57°43' E 010°41'0 0.0
2015-Mar-26 22:30N 57°43' E 010°40'4 4.0
2015-Mar-26 21:28N 57°47' E 010°44'1111.0
2015-Mar-26 20:28N 57°46' E 010°23'6312.8
2015-Mar-26 15:33N 57°20' E 008°37'1512.6
2015-Mar-26 14:24N 57°11' E 008°15'1212.8
2015-Mar-26 13:27N 57°02' E 007°60'18812.6
2015-Mar-25 22:32N 54°22' E 005°06'1512.5
2015-Mar-25 21:20N 54°09' E 004°53'912.0
2015-Mar-25 20:33N 54°01' E 004°44'16111.1
2015-Mar-25 06:04N 51°42' E 002°30'713.4
2015-Mar-25 05:33N 51°36' E 002°23'1413.1
2015-Mar-25 04:31N 51°25' E 002°11'1213.0
2015-Mar-25 03:33N 51°13' E 002°03'1414.3
2015-Mar-25 02:33N 51°06' E 001°44'1514.3
2015-Mar-25 01:32N 50°54' E 001°29'  
Track history (hours):
 
Tides and Currents Weather Stations Pressure Air Temp Water Temp Dewpoint Dewpoint Depression Visibility Wind Speed Wind Dir Waves Ship Positions

Romoe Maersk

Last reported at 2015-Mar-28 07:32 UTC. Time now 2015-Mar-30 14:13 UTC.
Position N 55°36' E 015°28'.

Length 171 m; draft 6.3 m.

Type: Ship. MMSI: 220209000.

Date/timePositionNaut miles runAvg speedWind from/ knotsBaromVisibWave heightAir tempDewpointWater temp
2015-Mar-28 07:32N 55°36' E 015°28'9 9.2
2015-Mar-28 06:34N 55°32' E 015°14'9 8.8
2015-Mar-28 05:33N 55°29' E 014°59'9 9.0
2015-Mar-28 04:33N 55°25' E 014°45'9 8.7
2015-Mar-28 03:34N 55°19' E 014°33'9 8.7
2015-Mar-28 02:34N 55°13' E 014°23'8 7.7
2015-Mar-28 01:33N 55°10' E 014°11'9 8.8
2015-Mar-28 00:33N 55°10' E 013°55'18 8.8
2015-Mar-27 22:33N 55°11' E 013°25'8 8.4
2015-Mar-27 21:33N 55°13' E 013°10'9 8.6
2015-Mar-27 20:34N 55°15' E 012°55'9 8.7
2015-Mar-27 19:33N 55°17' E 012°41'7 7.3
2015-Mar-27 18:33N 55°24' E 012°39'9 9.0
2015-Mar-27 17:33N 55°33' E 012°42'1111.1
2015-Mar-27 16:33N 55°44' E 012°41'10 9.7
2015-Mar-27 15:33N 55°54' E 012°39'1111.2
2015-Mar-27 14:33N 56°05' E 012°36'1010.0
2015-Mar-27 13:33N 56°11' E 012°21'2311.3
2015-Mar-27 11:33N 56°30' E 011°58'1212.2
2015-Mar-27 10:33N 56°41' E 011°53'1212.4
2015-Mar-27 09:33N 56°53' E 011°46'1312.0
2015-Mar-27 08:30N 57°05' E 011°39'1111.9
2015-Mar-27 07:33N 57°16' E 011°32'1212.0
2015-Mar-27 06:33N 57°27' E 011°22'1211.7
2015-Mar-27 05:33N 57°35' E 011°07'1211.8
2015-Mar-27 04:33N 57°42' E 010°49'5 3.6
2015-Mar-27 03:15N 57°43' E 010°41'0 0.0
2015-Mar-27 02:33N 57°43' E 010°41'0 0.1
2015-Mar-27 01:30N 57°43' E 010°41'0 0.0
2015-Mar-27 00:33N 57°43' E 010°41'0 0.1
2015-Mar-26 23:30N 57°43' E 010°41'0 0.0
2015-Mar-26 22:30N 57°43' E 010°40'4 4.0
2015-Mar-26 21:28N 57°47' E 010°44'1111.0
2015-Mar-26 20:28N 57°46' E 010°23'6312.8
2015-Mar-26 15:33N 57°20' E 008°37'1512.6
2015-Mar-26 14:24N 57°11' E 008°15'1212.8
2015-Mar-26 13:27N 57°02' E 007°60'18812.6
2015-Mar-25 22:32N 54°22' E 005°06'1512.5
2015-Mar-25 21:20N 54°09' E 004°53'912.0
2015-Mar-25 20:33N 54°01' E 004°44'16111.1
2015-Mar-25 06:04N 51°42' E 002°30'713.4
2015-Mar-25 05:33N 51°36' E 002°23'1413.1
2015-Mar-25 04:31N 51°25' E 002°11'1213.0
2015-Mar-25 03:33N 51°13' E 002°03'1414.3
2015-Mar-25 02:33N 51°06' E 001°44'1514.3
2015-Mar-25 01:32N 50°54' E 001°29'  

Dump ship's entire track history